Time;durP1;ratioP1;P1;durP2;ratioP2;P2;SDS_P1;SDS_P2;PMS_P1;PMS_P2;Temp;Humidity;BMP_temperature;BMP_pressure;BME280_temperature;BME280_humidity;BME280_pressure;Samples;Min_cycle;Max_cycle;Signal;HPM_P1;HPM_P2
2022/12/22 03:25:53;;;;;;;11.82;5.10;;;8.90;99.90;;;;;;5103018;28;20127;-68
2022/12/22 03:28:24;;;;;;;9.38;5.25;;;8.90;99.90;;;;;;5107069;28;20039;-68
2022/12/22 03:31:02;;;;;;;12.27;5.03;;;8.80;99.90;;;;;;5119795;27;20457;-68
2022/12/22 03:33:29;;;;;;;8.75;4.57;;;8.90;99.90;;;;;;5096193;28;20045;-69
2022/12/22 03:35:54;;;;;;;8.90;4.38;;;8.80;99.90;;;;;;5105260;28;20134;-68
2022/12/22 03:38:20;;;;;;;9.02;4.20;;;8.90;99.90;;;;;;5106777;28;20118;-68
2022/12/22 03:40:46;;;;;;;13.68;6.25;;;8.80;99.90;;;;;;5105754;28;20112;-68
2022/12/22 03:48:42;;;;;;;12.20;5.07;;;8.80;99.90;;;;;;5105814;28;20082;-68
2022/12/22 03:51:08;;;;;;;10.38;4.57;;;8.80;99.90;;;;;;5105292;28;20617;-68
2022/12/22 03:53:34;;;;;;;12.85;5.65;;;8.80;99.90;;;;;;5106207;28;20135;-68
2022/12/22 03:56:00;;;;;;;17.90;5.38;;;8.80;99.90;;;;;;5102311;28;20070;-69
2022/12/22 03:58:27;;;;;;;9.20;4.53;;;8.80;99.90;;;;;;5106758;28;20446;-68
2022/12/22 04:01:03;;;;;;;12.50;6.28;;;8.80;99.90;;;;;;5104146;28;20123;-68
2022/12/22 04:03:29;;;;;;;9.45;5.05;;;8.80;99.90;;;;;;5107974;28;20063;-68
2022/12/22 04:05:55;;;;;;;11.38;4.80;;;8.80;99.90;;;;;;5102587;28;20063;-68
2022/12/22 04:08:20;;;;;;;10.80;5.15;;;8.80;99.90;;;;;;5108622;28;20039;-68
2022/12/22 04:13:30;;;;;;;11.38;5.10;;;8.80;99.90;;;;;;5103618;28;20075;-68
2022/12/22 04:15:56;;;;;;;9.80;4.10;;;8.80;99.90;;;;;;5099006;28;20082;-68
2022/12/22 04:18:21;;;;;;;10.23;4.55;;;8.80;99.90;;;;;;5105396;28;20096;-69
2022/12/22 04:20:48;;;;;;;10.57;4.63;;;8.80;99.90;;;;;;5107428;28;20040;-68
2022/12/22 04:23:14;;;;;;;7.93;4.03;;;8.80;99.90;;;;;;5103174;28;20039;-68
2022/12/22 04:25:40;;;;;;;8.75;4.75;;;8.80;99.90;;;;;;5106565;28;20554;-69
2022/12/22 04:28:05;;;;;;;9.95;5.47;;;8.80;99.90;;;;;;5085604;28;20044;-68
2022/12/22 04:30:31;;;;;;;11.45;5.53;;;8.80;99.90;;;;;;5093130;28;20028;-68
2022/12/22 04:32:57;;;;;;;9.05;3.97;;;8.80;99.90;;;;;;5103448;28;20036;-68
2022/12/22 04:35:22;;;;;;;7.85;3.40;;;8.80;99.90;;;;;;5103624;28;20121;-68
2022/12/22 04:37:48;;;;;;;8.80;4.43;;;8.80;99.90;;;;;;5090399;28;20036;-68
2022/12/22 04:40:13;;;;;;;8.70;3.40;;;8.90;99.90;;;;;;5088271;28;20073;-68
2022/12/22 04:42:39;;;;;;;6.53;3.45;;;8.80;99.90;;;;;;5103832;28;20039;-68
2022/12/22 04:45:05;;;;;;;9.82;4.43;;;8.80;99.90;;;;;;5103831;28;20039;-68
2022/12/22 04:47:31;;;;;;;9.80;4.10;;;8.90;99.90;;;;;;5100649;27;20042;-68
2022/12/22 04:49:56;;;;;;;8.23;4.03;;;8.90;99.90;;;;;;5089732;28;20023;-68
2022/12/22 04:52:22;;;;;;;10.68;4.32;;;8.80;99.90;;;;;;5106324;28;20044;-68
2022/12/22 04:54:47;;;;;;;7.40;3.92;;;8.90;99.90;;;;;;5104833;28;20036;-68
2022/12/22 04:57:13;;;;;;;8.57;4.15;;;8.90;99.90;;;;;;5106993;28;20115;-68
2022/12/22 04:59:39;;;;;;;7.90;3.95;;;8.90;99.90;;;;;;5087688;28;20035;-68
2022/12/22 05:02:04;;;;;;;7.32;3.83;;;8.90;99.90;;;;;;5101843;28;20496;-69
2022/12/22 05:04:31;;;;;;;6.88;3.33;;;8.90;99.90;;;;;;5102897;27;20440;-68
2022/12/22 05:06:56;;;;;;;6.05;2.80;;;8.80;99.90;;;;;;5104869;28;20043;-68
2022/12/22 05:09:22;;;;;;;5.57;2.85;;;8.90;99.90;;;;;;5104359;28;20484;-68
2022/12/22 05:11:47;;;;;;;6.10;3.53;;;8.90;99.90;;;;;;5104430;28;20037;-68
2022/12/22 05:14:13;;;;;;;7.07;3.65;;;8.90;99.90;;;;;;5102322;28;20553;-68
2022/12/22 05:16:39;;;;;;;9.95;3.92;;;8.90;99.90;;;;;;5085365;28;20534;-68
2022/12/22 05:19:04;;;;;;;7.57;4.03;;;8.80;99.90;;;;;;5105672;28;20043;-68
2022/12/22 05:21:30;;;;;;;8.70;3.63;;;8.80;99.90;;;;;;5103205;28;20050;-68
2022/12/22 05:23:55;;;;;;;8.30;3.53;;;8.90;99.90;;;;;;5106427;28;20119;-68
2022/12/22 05:26:21;;;;;;;6.80;3.45;;;8.90;99.90;;;;;;5104472;28;20040;-68
2022/12/22 05:28:47;;;;;;;8.70;3.58;;;8.80;99.90;;;;;;5104296;28;20114;-68
2022/12/22 05:31:19;;;;;;;7.47;3.58;;;8.80;99.90;;;;;;5103245;28;20058;-68
2022/12/22 05:33:44;;;;;;;7.60;3.40;;;8.90;99.90;;;;;;5102909;27;20043;-68
2022/12/22 05:36:10;;;;;;;8.27;3.95;;;8.90;99.90;;;;;;5084758;28;20061;-68
2022/12/22 05:38:36;;;;;;;10.23;4.18;;;8.80;99.90;;;;;;5105061;28;20126;-68
2022/12/22 05:41:02;;;;;;;8.23;3.67;;;8.80;99.90;;;;;;5104092;28;20067;-68
2022/12/22 05:43:27;;;;;;;11.88;4.05;;;8.80;99.90;;;;;;5105427;28;20031;-68
2022/12/22 05:45:53;;;;;;;7.88;3.38;;;8.80;99.90;;;;;;5102131;28;20054;-68
2022/12/22 05:48:18;;;;;;;9.90;4.43;;;8.90;99.90;;;;;;5104535;28;20038;-68
2022/12/22 05:50:44;;;;;;;10.70;4.25;;;8.80;99.90;;;;;;5090047;28;20412;-68
2022/12/22 05:53:10;;;;;;;12.60;4.50;;;8.80;99.90;;;;;;5106293;28;20047;-68
2022/12/22 05:55:36;;;;;;;9.48;4.20;;;8.90;99.90;;;;;;5105814;28;20118;-68
2022/12/22 05:58:01;;;;;;;14.85;5.78;;;8.80;99.90;;;;;;5102544;28;20518;-68
2022/12/22 06:00:31;;;;;;;15.80;4.97;;;8.90;99.90;;;;;;5105151;28;20039;-68
2022/12/22 06:02:57;;;;;;;11.73;4.25;;;8.80;99.90;;;;;;5101611;28;20039;-68
2022/12/22 06:05:24;;;;;;;15.40;4.35;;;8.80;99.90;;;;;;5105626;28;20036;-68
2022/12/22 06:07:50;;;;;;;14.85;6.00;;;8.80;99.90;;;;;;5101338;28;20036;-68
2022/12/22 06:10:15;;;;;;;12.90;5.07;;;8.90;99.90;;;;;;5106284;28;20049;-68
2022/12/22 06:12:42;;;;;;;13.55;5.57;;;8.80;99.90;;;;;;5103983;28;20122;-68
2022/12/22 06:15:10;;;;;;;18.95;5.55;;;8.80;99.90;;;;;;5088981;28;20040;-68
2022/12/22 06:17:36;;;;;;;12.05;4.72;;;8.80;99.90;;;;;;5095975;28;20043;-69
2022/12/22 06:20:02;;;;;;;20.45;7.05;;;8.80;99.90;;;;;;5106089;28;20369;-68
2022/12/22 06:22:28;;;;;;;14.82;5.72;;;8.80;99.90;;;;;;5104150;28;20093;-68
2022/12/22 06:24:54;;;;;;;16.30;6.03;;;8.80;99.90;;;;;;5105482;28;20731;-68
2022/12/22 06:27:19;;;;;;;14.77;4.90;;;8.80;99.90;;;;;;5085167;28;21029;-68
2022/12/22 06:29:45;;;;;;;10.27;4.30;;;8.70;99.90;;;;;;5106055;28;20035;-69
2022/12/22 06:32:10;;;;;;;16.77;5.88;;;8.70;99.90;;;;;;5085522;28;20077;-69
2022/12/22 06:34:36;;;;;;;11.35;4.70;;;8.70;99.90;;;;;;5086028;28;20080;-68
2022/12/22 06:37:01;;;;;;;17.92;6.60;;;8.70;99.90;;;;;;5101079;28;20044;-68
2022/12/22 06:39:27;;;;;;;15.30;4.65;;;8.70;99.90;;;;;;5104817;28;20108;-68
2022/12/22 06:44:37;;;;;;;16.58;4.95;;;8.70;99.90;;;;;;5106161;28;20381;-69
2022/12/22 06:47:02;;;;;;;15.68;5.97;;;8.70;99.90;;;;;;5103692;28;20081;-68
2022/12/22 06:49:28;;;;;;;14.23;4.25;;;8.70;99.90;;;;;;5105663;27;20032;-68
2022/12/22 06:51:53;;;;;;;10.85;3.95;;;8.60;99.90;;;;;;5083723;28;20047;-68
2022/12/22 06:54:19;;;;;;;9.82;3.38;;;8.60;99.90;;;;;;5106903;28;20174;-68
2022/12/22 06:56:45;;;;;;;12.93;4.75;;;8.60;99.90;;;;;;5108372;28;20040;-68
2022/12/22 06:59:10;;;;;;;11.02;4.43;;;8.60;99.90;;;;;;5108284;28;20035;-69
2022/12/22 07:01:36;;;;;;;14.07;4.72;;;8.50;99.90;;;;;;5092023;28;20059;-68
2022/12/22 07:04:01;;;;;;;14.38;4.50;;;8.50;99.90;;;;;;5104313;27;20031;-68
2022/12/22 07:06:27;;;;;;;10.02;3.67;;;8.50;99.90;;;;;;5106189;28;21769;-68
2022/12/22 07:08:53;;;;;;;11.57;4.30;;;8.50;99.90;;;;;;5108365;28;20032;-68
2022/12/22 07:11:18;;;;;;;13.85;4.68;;;8.50;99.90;;;;;;5108129;28;20400;-68
2022/12/22 07:13:44;;;;;;;14.00;4.32;;;8.30;99.90;;;;;;5106372;28;20079;-68
2022/12/22 07:16:10;;;;;;;15.30;4.32;;;8.30;99.90;;;;;;5106918;28;20076;-69
2022/12/22 07:18:38;;;;;;;10.90;4.57;;;8.20;99.90;;;;;;5108948;28;20044;-68
2022/12/22 07:21:06;;;;;;;10.73;4.78;;;8.10;99.90;;;;;;5086369;28;20047;-68
2022/12/22 07:23:33;;;;;;;9.55;3.67;;;8.00;99.90;;;;;;5105938;27;20412;-69
2022/12/22 07:25:58;;;;;;;11.13;4.00;;;8.00;99.90;;;;;;5107125;28;20097;-68
2022/12/22 07:28:24;;;;;;;11.75;4.95;;;7.90;99.90;;;;;;5104687;27;20031;-68
2022/12/22 07:30:51;;;;;;;10.75;4.00;;;7.90;99.90;;;;;;5100745;28;20038;-69
2022/12/22 07:33:17;;;;;;;12.15;3.80;;;7.80;99.90;;;;;;5100729;28;20122;-69
2022/12/22 07:35:43;;;;;;;13.02;4.10;;;7.80;99.90;;;;;;5102773;27;20055;-70
2022/12/22 07:38:08;;;;;;;11.50;4.10;;;7.70;99.90;;;;;;5099463;28;21589;-68
2022/12/22 07:40:34;;;;;;;12.32;3.25;;;7.70;99.90;;;;;;5095274;28;20040;-68
2022/12/22 07:43:00;;;;;;;7.15;2.95;;;7.70;99.90;;;;;;5094596;28;20058;-68
2022/12/22 07:45:26;;;;;;;10.68;3.40;;;7.60;99.90;;;;;;5100023;28;20040;-69
2022/12/22 07:47:58;;;;;;;10.40;4.22;;;7.70;99.90;;;;;;5098502;28;20543;-68
2022/12/22 07:50:24;;;;;;;12.77;4.10;;;7.60;99.90;;;;;;5098623;28;20035;-69
2022/12/22 07:53:09;;;;;;;11.10;3.65;;;7.70;99.90;;;;;;5098498;27;20048;-68
2022/12/22 07:55:35;;;;;;;12.85;4.28;;;7.70;99.90;;;;;;5093757;28;20057;-69
2022/12/22 07:58:01;;;;;;;11.20;3.63;;;7.70;99.90;;;;;;5090817;28;20043;-69
2022/12/22 08:00:26;;;;;;;14.00;4.82;;;7.70;99.90;;;;;;5095505;28;20224;-69
2022/12/22 08:02:54;;;;;;;9.52;3.95;;;7.70;99.90;;;;;;5080883;28;20031;-68
2022/12/22 08:05:21;;;;;;;9.35;3.55;;;7.80;99.90;;;;;;5092505;28;20101;-69
2022/12/22 08:07:48;;;;;;;10.43;3.92;;;7.80;99.90;;;;;;5091033;28;20066;-69
2022/12/22 08:10:14;;;;;;;10.63;2.88;;;7.80;99.90;;;;;;5094492;28;20528;-69
2022/12/22 08:12:40;;;;;;;10.90;3.58;;;7.80;99.90;;;;;;5096997;28;20039;-68
2022/12/22 08:15:07;;;;;;;13.00;4.57;;;7.80;99.90;;;;;;5095354;28;20046;-69
2022/12/22 08:17:33;;;;;;;13.02;4.53;;;7.80;99.90;;;;;;5094777;28;20051;-68
2022/12/22 08:19:59;;;;;;;8.85;3.35;;;7.80;99.90;;;;;;5094796;28;20031;-69
2022/12/22 08:22:24;;;;;;;13.52;2.92;;;7.80;99.90;;;;;;5094276;28;20040;-68
2022/12/22 08:24:52;;;;;;;11.52;4.28;;;7.80;99.90;;;;;;5095877;28;20378;-68
2022/12/22 08:27:28;;;;;;;14.20;4.95;;;7.80;99.90;;;;;;5096963;28;20455;-68
2022/12/22 08:29:57;;;;;;;14.18;3.72;;;7.80;99.90;;;;;;5076803;28;20035;-68
2022/12/22 08:32:23;;;;;;;7.00;3.05;;;7.80;99.90;;;;;;5091377;27;20418;-68
2022/12/22 08:34:51;;;;;;;8.70;3.42;;;7.80;99.90;;;;;;5095132;28;20048;-68
2022/12/22 08:37:19;;;;;;;11.20;3.38;;;7.80;99.90;;;;;;5094357;28;20044;-68
2022/12/22 08:39:49;;;;;;;10.00;3.92;;;7.80;99.90;;;;;;5096981;28;20280;-69
2022/12/22 08:42:16;;;;;;;9.35;3.38;;;7.80;99.90;;;;;;5110326;28;20454;-68
2022/12/22 08:44:43;;;;;;;9.77;3.80;;;7.80;99.90;;;;;;5109393;28;20298;-68
2022/12/22 08:47:09;;;;;;;8.77;3.28;;;7.80;99.90;;;;;;5091240;28;20138;-68
2022/12/22 08:49:34;;;;;;;9.00;3.88;;;7.90;99.90;;;;;;5106953;27;20130;-68
2022/12/22 08:52:00;;;;;;;13.82;4.05;;;7.90;99.90;;;;;;5109270;28;20044;-69
2022/12/22 08:54:25;;;;;;;12.48;4.63;;;7.80;99.90;;;;;;5109231;28;20092;-69
2022/12/22 08:56:51;;;;;;;7.45;2.97;;;7.80;99.90;;;;;;5108411;28;20518;-68
2022/12/22 08:59:17;;;;;;;8.00;3.47;;;7.90;99.90;;;;;;5108786;28;20050;-68
2022/12/22 09:01:46;;;;;;;8.20;3.72;;;7.80;99.90;;;;;;5107658;27;20492;-68
2022/12/22 09:04:13;;;;;;;6.38;3.20;;;7.80;99.90;;;;;;5108088;28;20627;-69
2022/12/22 09:06:39;;;;;;;6.35;2.92;;;7.80;99.90;;;;;;5108398;28;20517;-68
2022/12/22 09:09:07;;;;;;;8.32;3.28;;;7.80;99.90;;;;;;5109039;28;20079;-68
2022/12/22 09:11:33;;;;;;;9.43;3.08;;;7.70;99.90;;;;;;5108078;27;20040;-68
2022/12/22 09:14:00;;;;;;;9.43;3.67;;;7.70;99.90;;;;;;5108840;28;20031;-68
2022/12/22 09:16:28;;;;;;;9.20;3.42;;;7.80;99.90;;;;;;5107234;28;20067;-69
2022/12/22 09:18:54;;;;;;;11.02;3.47;;;7.70;99.90;;;;;;5089682;28;20040;-68
2022/12/22 09:21:21;;;;;;;8.27;3.65;;;7.70;99.90;;;;;;5108405;28;20039;-68
2022/12/22 09:23:46;;;;;;;8.63;3.13;;;7.70;99.90;;;;;;5109818;28;20035;-69
2022/12/22 09:26:18;;;;;;;7.53;3.08;;;7.70;99.90;;;;;;5108298;28;20036;-68
2022/12/22 09:28:44;;;;;;;9.27;3.30;;;7.60;99.90;;;;;;5109687;28;20075;-69
2022/12/22 09:31:10;;;;;;;11.38;4.15;;;7.70;99.90;;;;;;5106286;28;20036;-69
2022/12/22 09:33:36;;;;;;;6.03;2.60;;;7.70;99.90;;;;;;5106761;28;20035;-69
2022/12/22 09:36:11;;;;;;;9.43;3.65;;;7.70;99.90;;;;;;5108179;28;20058;-68
2022/12/22 09:38:38;;;;;;;8.03;2.90;;;7.70;99.90;;;;;;5108424;28;20093;-68
2022/12/22 09:41:46;;;;;;;5.43;1.77;;;7.70;99.90;;;;;;5107924;28;20612;-68
2022/12/22 09:44:17;;;;;;;7.82;2.55;;;7.70;99.90;;;;;;5108474;28;20039;-68
2022/12/22 09:46:43;;;;;;;9.25;2.70;;;7.70;99.90;;;;;;5089568;28;20072;-68
2022/12/22 09:49:14;;;;;;;6.78;2.22;;;7.70;99.90;;;;;;5107387;28;20088;-68
2022/12/22 09:51:46;;;;;;;5.32;2.30;;;7.60;99.90;;;;;;5108941;28;20066;-68
2022/12/22 09:54:13;;;;;;;8.80;2.40;;;7.60;99.90;;;;;;5105464;28;20040;-68
2022/12/22 09:56:39;;;;;;;6.43;2.60;;;7.60;99.90;;;;;;5075255;28;21586;-68
2022/12/22 09:59:17;;;;;;;4.38;1.92;;;7.60;99.90;;;;;;5101041;28;20406;-68
2022/12/22 10:01:46;;;;;;;4.43;2.05;;;7.50;99.90;;;;;;5095010;28;20040;-68
2022/12/22 10:04:40;;;;;;;5.97;2.60;;;7.50;99.90;;;;;;5099322;28;20032;-71
2022/12/22 10:07:21;;;;;;;4.10;1.52;;;7.50;99.90;;;;;;5114056;28;20648;-68
2022/12/22 10:09:46;;;;;;;7.20;3.13;;;7.50;99.90;;;;;;5095622;28;20050;-68
2022/12/22 10:12:16;;;;;;;6.07;2.78;;;7.50;99.90;;;;;;5094988;28;20044;-68
2022/12/22 10:14:45;;;;;;;6.47;1.95;;;7.60;99.90;;;;;;5084974;28;20032;-68
2022/12/22 10:17:14;;;;;;;5.65;2.40;;;7.60;99.90;;;;;;5091560;28;20047;-69
2022/12/22 10:19:40;;;;;;;4.40;2.03;;;7.50;99.90;;;;;;5094862;28;20050;-68
2022/12/22 10:22:24;;;;;;;4.10;2.08;;;7.60;99.90;;;;;;5079233;27;20036;-68
2022/12/22 10:24:50;;;;;;;6.88;2.40;;;7.50;99.90;;;;;;5078659;28;20035;-68
2022/12/22 10:27:17;;;;;;;5.93;2.20;;;7.60;99.90;;;;;;5094108;28;20673;-68
2022/12/22 10:29:43;;;;;;;5.88;2.70;;;7.60;99.90;;;;;;5104175;28;20043;-68
2022/12/22 10:32:18;;;;;;;7.65;2.10;;;7.60;99.90;;;;;;5101670;27;20476;-68
2022/12/22 10:35:02;;;;;;;6.28;2.80;;;7.60;99.90;;;;;;5104925;27;20416;-72
2022/12/22 10:37:34;;;;;;;3.10;1.95;;;7.60;99.90;;;;;;5105437;27;20048;-74
2022/12/22 10:40:16;;;;;;;6.15;1.70;;;7.60;99.90;;;;;;5104441;27;20122;-68
2022/12/22 10:42:54;;;;;;;6.47;2.58;;;7.60;99.90;;;;;;5103276;27;20072;-69
2022/12/22 10:45:23;;;;;;;5.63;2.17;;;7.60;99.90;;;;;;5101633;27;20077;-68
2022/12/22 10:47:56;;;;;;;5.45;2.72;;;7.60;99.90;;;;;;5104150;27;20131;-68
2022/12/22 10:50:22;;;;;;;4.50;2.28;;;7.60;99.90;;;;;;5105901;28;20126;-68
2022/12/22 10:52:56;;;;;;;5.90;3.33;;;7.70;99.90;;;;;;5107658;27;20032;-69
2022/12/22 10:55:28;;;;;;;8.50;2.13;;;7.70;99.90;;;;;;5100496;27;20035;-69
2022/12/22 10:58:09;;;;;;;6.80;2.40;;;7.70;99.90;;;;;;5081923;28;20059;-68
2022/12/22 11:00:35;;;;;;;9.13;2.72;;;7.70;99.90;;;;;;5101748;28;20134;-69
2022/12/22 11:03:02;;;;;;;6.68;2.22;;;7.70;99.90;;;;;;5098762;27;20586;-68
2022/12/22 11:05:28;;;;;;;5.53;2.33;;;7.70;99.90;;;;;;5100642;27;20032;-69
2022/12/22 11:07:54;;;;;;;6.38;2.40;;;7.80;99.90;;;;;;5095152;28;20043;-69
2022/12/22 11:13:50;;;;;;;7.57;2.55;;;7.90;99.90;;;;;;5145005;27;20102;-68
2022/12/22 11:16:20;;;;;;;5.38;2.25;;;7.90;99.90;;;;;;5141055;27;20060;-67
2022/12/22 11:19:12;;;;;;;5.63;1.98;;;7.90;99.90;;;;;;5131626;27;20067;-69
2022/12/22 11:21:45;;;;;;;8.15;2.67;;;7.90;99.90;;;;;;5118851;27;20211;-68
2022/12/22 11:24:29;;;;;;;4.80;2.30;;;7.90;99.90;;;;;;5122248;27;20039;-67
2022/12/22 11:27:26;;;;;;;8.63;3.15;;;7.90;99.90;;;;;;5125406;27;20050;-67
2022/12/22 11:30:07;;;;;;;9.38;2.63;;;7.90;99.90;;;;;;5111900;27;20261;-68
2022/12/22 11:32:53;;;;;;;4.85;1.98;;;7.90;99.90;;;;;;5113433;27;20173;-67
2022/12/22 11:35:40;;;;;;;6.60;2.70;;;7.90;99.90;;;;;;5123000;27;20147;-68
2022/12/22 11:38:32;;;;;;;5.25;2.05;;;7.90;99.90;;;;;;5119057;27;20046;-68
2022/12/22 11:41:21;;;;;;;4.07;2.08;;;7.90;99.90;;;;;;5099022;27;20058;-68
2022/12/22 11:43:58;;;;;;;10.07;2.70;;;7.90;99.90;;;;;;5140227;27;20035;-67
2022/12/22 11:46:46;;;;;;;3.92;2.05;;;7.90;99.90;;;;;;5134393;27;20070;-68
2022/12/22 11:49:40;;;;;;;5.97;2.17;;;7.90;99.90;;;;;;5136158;27;20165;-68
2022/12/22 11:52:27;;;;;;;5.97;2.38;;;7.90;99.90;;;;;;5115503;27;20095;-68
2022/12/22 11:55:15;;;;;;;5.53;2.08;;;7.90;99.90;;;;;;5137232;27;20037;-68
2022/12/22 11:58:27;;;;;;;4.35;1.83;;;7.90;99.90;;;;;;5114378;27;20039;-68
2022/12/22 12:01:01;;;;;;;5.60;2.42;;;7.80;99.90;;;;;;5133103;27;20124;-68
2022/12/22 12:03:55;;;;;;;4.40;1.88;;;7.80;99.90;;;;;;5136742;27;20031;-68
2022/12/22 12:06:47;;;;;;;7.45;2.05;;;7.80;99.90;;;;;;5117304;27;20031;-68
2022/12/22 12:09:43;;;;;;;2.65;1.50;;;7.80;99.90;;;;;;5115690;27;21716;-68
2022/12/22 12:12:15;;;;;;;6.88;1.80;;;7.80;99.90;;;;;;5116546;27;20099;-69
2022/12/22 12:15:18;;;;;;;2.38;1.60;;;7.80;99.90;;;;;;5099717;27;20046;-68
2022/12/22 12:18:16;;;;;;;8.82;2.05;;;7.80;99.90;;;;;;5135848;27;20031;-68
2022/12/22 12:20:53;;;;;;;3.78;1.92;;;7.90;99.90;;;;;;5130327;27;20035;-68
2022/12/22 12:23:31;;;;;;;5.70;2.72;;;7.90;99.90;;;;;;5126498;27;20643;-68
2022/12/22 12:26:31;;;;;;;4.22;1.80;;;7.90;99.90;;;;;;5101793;27;20136;-67
2022/12/22 12:29:15;;;;;;;4.50;2.13;;;7.90;99.90;;;;;;5094087;27;20066;-68
2022/12/22 12:31:58;;;;;;;4.05;1.98;;;7.90;99.90;;;;;;5118555;27;20046;-68
2022/12/22 12:34:25;;;;;;;3.85;1.85;;;7.90;99.90;;;;;;5121513;27;20281;-68
2022/12/22 12:37:09;;;;;;;5.60;1.92;;;7.90;99.90;;;;;;5121214;27;20031;-68
2022/12/22 12:40:01;;;;;;;2.97;1.52;;;7.90;99.90;;;;;;5123346;27;20130;-68
2022/12/22 12:42:39;;;;;;;4.63;1.88;;;8.00;99.90;;;;;;5105490;27;20046;-68
2022/12/22 12:45:33;;;;;;;2.95;1.25;;;8.00;99.90;;;;;;5083712;27;20126;-67
2022/12/22 12:48:23;;;;;;;3.50;1.90;;;8.10;99.90;;;;;;5117075;27;20039;-67
2022/12/22 12:50:50;;;;;;;6.60;2.70;;;8.10;99.90;;;;;;5116915;27;20449;-68
2022/12/22 12:53:21;;;;;;;2.85;1.58;;;8.10;99.90;;;;;;5135823;27;20063;-68
2022/12/22 12:55:46;;;;;;;4.63;2.05;;;8.20;99.90;;;;;;5120120;27;20031;-68
2022/12/22 12:58:38;;;;;;;3.85;2.25;;;8.20;99.90;;;;;;5097592;27;20440;-67
2022/12/22 13:01:12;;;;;;;6.18;2.85;;;8.20;99.90;;;;;;5115509;27;20644;-68
2022/12/22 13:03:42;;;;;;;8.82;2.25;;;8.20;99.90;;;;;;5119004;27;20564;-68
2022/12/22 13:06:10;;;;;;;6.82;3.72;;;8.20;99.90;;;;;;5103725;27;20035;-68
2022/12/22 13:08:49;;;;;;;10.07;5.10;;;8.20;99.90;;;;;;5114198;27;20106;-68
2022/12/22 13:11:15;;;;;;;12.10;4.47;;;8.30;99.90;;;;;;5083155;27;20062;-67
2022/12/22 13:13:40;;;;;;;8.73;3.20;;;8.30;99.90;;;;;;5122086;27;20035;-68
2022/12/22 13:16:06;;;;;;;10.60;4.95;;;8.40;99.90;;;;;;5100216;27;20464;-68
2022/12/22 13:18:40;;;;;;;16.60;6.88;;;8.40;99.90;;;;;;5105273;27;20105;-68
2022/12/22 13:21:23;;;;;;;17.10;4.97;;;8.50;99.90;;;;;;5126211;27;20041;-68
2022/12/22 13:24:00;;;;;;;9.70;4.40;;;8.50;99.90;;;;;;5128114;27;20036;-68
2022/12/22 13:26:36;;;;;;;4.60;2.22;;;8.50;99.90;;;;;;5131169;27;20031;-67
2022/12/22 13:29:28;;;;;;;6.97;3.00;;;8.60;99.90;;;;;;5098800;27;20096;-68
2022/12/22 13:31:56;;;;;;;6.05;2.50;;;8.60;99.90;;;;;;5116009;27;20443;-67
2022/12/22 13:34:37;;;;;;;6.47;3.05;;;8.70;99.90;;;;;;5108532;27;20082;-68
2022/12/22 13:37:11;;;;;;;5.43;3.75;;;8.70;99.90;;;;;;5126478;27;20426;-67
2022/12/22 13:39:37;;;;;;;6.78;3.40;;;8.70;99.90;;;;;;5099068;27;20035;-68
2022/12/22 13:42:04;;;;;;;6.75;2.65;;;8.70;99.90;;;;;;5135150;27;20035;-68
2022/12/22 13:44:32;;;;;;;5.65;2.42;;;8.70;99.90;;;;;;5135223;27;20050;-68
2022/12/22 13:47:04;;;;;;;5.13;2.30;;;8.80;99.90;;;;;;5102547;27;20459;-68
2022/12/22 13:49:30;;;;;;;5.07;2.47;;;8.80;99.90;;;;;;5122090;27;20640;-68
2022/12/22 13:51:57;;;;;;;8.52;4.38;;;8.90;99.90;;;;;;5123654;27;20043;-68
2022/12/22 13:54:34;;;;;;;13.40;6.32;;;8.80;99.90;;;;;;5103857;27;20126;-68
2022/12/22 13:57:03;;;;;;;4.15;2.55;;;8.80;99.90;;;;;;5120701;27;20064;-68
2022/12/22 13:59:35;;;;;;;4.03;2.63;;;8.90;99.90;;;;;;5121481;27;20096;-68
2022/12/22 14:02:15;;;;;;;6.72;4.15;;;8.90;99.90;;;;;;5138940;27;20051;-68
2022/12/22 14:04:43;;;;;;;12.82;4.88;;;8.90;99.90;;;;;;5085502;27;20396;-68
2022/12/22 14:07:18;;;;;;;5.80;2.40;;;8.90;99.90;;;;;;5104140;27;20159;-69
2022/12/22 14:09:47;;;;;;;4.47;3.45;;;8.90;99.90;;;;;;5103357;27;20055;-68
2022/12/22 14:12:17;;;;;;;3.30;2.33;;;8.90;99.90;;;;;;5106195;27;20415;-68
2022/12/22 14:14:44;;;;;;;6.13;2.92;;;8.80;99.90;;;;;;5123071;27;20031;-68
2022/12/22 14:17:32;;;;;;;4.03;2.03;;;8.90;99.90;;;;;;5120095;27;20031;-68
2022/12/22 14:20:11;;;;;;;4.82;2.05;;;8.90;99.90;;;;;;5116837;27;20591;-68
2022/12/22 14:22:42;;;;;;;6.97;2.53;;;8.80;99.90;;;;;;5097584;27;20039;-68
2022/12/22 14:25:15;;;;;;;6.10;2.40;;;8.90;99.90;;;;;;5118619;27;21119;-69
2022/12/22 14:27:47;;;;;;;3.03;1.73;;;8.80;99.90;;;;;;5118485;27;20046;-68
2022/12/22 14:30:25;;;;;;;4.03;1.95;;;8.80;99.90;;;;;;5126557;27;20038;-68
2022/12/22 14:32:53;;;;;;;4.68;2.30;;;8.80;99.90;;;;;;5136551;27;20071;-68
2022/12/22 14:35:19;;;;;;;3.33;2.13;;;8.80;99.90;;;;;;5120351;27;20052;-68
2022/12/22 14:37:53;;;;;;;4.32;2.75;;;8.80;99.90;;;;;;5122852;27;20035;-68
2022/12/22 14:40:33;;;;;;;3.28;1.92;;;8.80;99.90;;;;;;5122923;27;20053;-68
2022/12/22 14:43:01;;;;;;;2.33;1.30;;;8.80;99.90;;;;;;5124596;27;20127;-68
2022/12/22 14:45:27;;;;;;;7.63;2.83;;;8.80;99.90;;;;;;5101707;27;20433;-68
2022/12/22 14:47:54;;;;;;;3.50;1.73;;;8.80;99.90;;;;;;5119771;27;20507;-68
2022/12/22 14:50:23;;;;;;;4.65;2.17;;;8.80;99.90;;;;;;5095434;27;20132;-68
2022/12/22 14:53:00;;;;;;;5.15;1.90;;;8.80;99.90;;;;;;5101827;27;20510;-68
2022/12/22 14:55:37;;;;;;;3.40;2.17;;;8.70;99.90;;;;;;5120329;27;20023;-68
2022/12/22 14:58:13;;;;;;;5.63;1.33;;;8.70;99.90;;;;;;5098721;27;20047;-68
2022/12/22 15:00:40;;;;;;;4.60;1.70;;;8.70;99.90;;;;;;5081957;27;20103;-68
2022/12/22 15:03:31;;;;;;;7.32;1.52;;;8.70;99.90;;;;;;5119885;27;20054;-68
2022/12/22 15:06:25;;;;;;;4.38;1.58;;;8.60;99.90;;;;;;5101491;27;20448;-68
2022/12/22 15:09:03;;;;;;;7.18;2.30;;;8.60;99.90;;;;;;5106701;27;20167;-69
2022/12/22 15:11:30;;;;;;;12.05;2.20;;;8.60;99.90;;;;;;5104431;28;20113;-69
2022/12/22 15:13:56;;;;;;;4.18;2.10;;;8.50;99.90;;;;;;5105835;27;20039;-68
2022/12/22 15:16:22;;;;;;;4.50;1.88;;;8.60;99.90;;;;;;5092465;27;20045;-68
2022/12/22 15:18:50;;;;;;;4.68;2.28;;;8.50;99.90;;;;;;5099966;27;20039;-68
2022/12/22 15:21:17;;;;;;;6.13;3.28;;;8.50;99.90;;;;;;5092887;27;20077;-68
2022/12/22 15:23:42;;;;;;;6.65;2.50;;;8.50;99.90;;;;;;5114986;28;20064;-68
2022/12/22 15:26:09;;;;;;;5.47;3.20;;;8.50;99.90;;;;;;5099640;27;20492;-68
2022/12/22 15:28:34;;;;;;;6.38;2.28;;;8.50;99.90;;;;;;5133915;27;20468;-68
2022/12/22 15:31:02;;;;;;;4.97;1.45;;;8.50;99.90;;;;;;5098696;27;20035;-68
2022/12/22 15:33:29;;;;;;;5.32;1.70;;;8.50;99.90;;;;;;5101818;27;20035;-68
2022/12/22 15:35:55;;;;;;;3.45;1.77;;;8.40;99.90;;;;;;5098202;27;20040;-68
2022/12/22 15:38:23;;;;;;;3.60;1.35;;;8.50;99.90;;;;;;5101622;27;20068;-68
2022/12/22 15:40:49;;;;;;;4.22;1.85;;;8.50;99.90;;;;;;5099963;27;20150;-68
2022/12/22 15:43:15;;;;;;;3.15;1.73;;;8.50;99.90;;;;;;5118661;27;20543;-69
2022/12/22 15:45:41;;;;;;;3.30;1.52;;;8.50;99.90;;;;;;5096067;27;20135;-72
2022/12/22 15:48:13;;;;;;;4.35;1.52;;;8.50;99.90;;;;;;5100492;27;20107;-68
2022/12/22 15:50:41;;;;;;;4.55;2.42;;;8.40;99.90;;;;;;5107119;27;20036;-68
2022/12/22 15:53:12;;;;;;;4.03;2.00;;;8.50;99.90;;;;;;5099300;27;20507;-68
2022/12/22 15:55:41;;;;;;;4.07;1.98;;;8.50;99.90;;;;;;5120259;27;20039;-68
2022/12/22 15:58:13;;;;;;;4.38;2.53;;;8.40;99.90;;;;;;5101307;27;20111;-68
2022/12/22 16:00:38;;;;;;;5.72;2.20;;;8.50;99.90;;;;;;5135785;27;20031;-68
2022/12/22 16:03:05;;;;;;;8.52;3.28;;;8.50;99.90;;;;;;5102662;27;20045;-68
2022/12/22 16:05:32;;;;;;;2.80;1.95;;;8.40;99.90;;;;;;5098455;27;20235;-68
2022/12/22 16:07:58;;;;;;;4.03;2.45;;;8.40;99.90;;;;;;5099305;27;20061;-68
2022/12/22 16:10:26;;;;;;;4.85;2.60;;;8.50;99.90;;;;;;5105800;27;20489;-68
2022/12/22 16:12:58;;;;;;;4.05;2.28;;;8.40;99.90;;;;;;5103686;27;20062;-68
2022/12/22 16:15:29;;;;;;;7.97;2.67;;;8.50;99.90;;;;;;5119826;27;20031;-68
2022/12/22 16:17:56;;;;;;;6.32;1.80;;;8.40;99.90;;;;;;5117105;27;20046;-68
2022/12/22 16:20:22;;;;;;;4.68;2.40;;;8.40;99.90;;;;;;5104073;27;20109;-68
2022/12/22 16:22:50;;;;;;;3.92;2.40;;;8.50;99.90;;;;;;5105117;27;20380;-68
2022/12/22 16:25:22;;;;;;;9.02;1.80;;;8.50;99.90;;;;;;5106450;27;20239;-68
2022/12/22 16:27:49;;;;;;;2.97;1.77;;;8.50;99.90;;;;;;5104521;27;20452;-67
2022/12/22 16:30:19;;;;;;;9.60;3.33;;;8.50;99.90;;;;;;5104254;27;20034;-68
2022/12/22 16:32:45;;;;;;;4.80;2.85;;;8.50;99.90;;;;;;5103765;27;20041;-67
2022/12/22 16:35:11;;;;;;;4.75;2.75;;;8.50;99.90;;;;;;5105848;27;20039;-67
2022/12/22 16:37:37;;;;;;;6.03;3.20;;;8.50;99.90;;;;;;5116830;27;20233;-67
2022/12/22 16:40:04;;;;;;;5.38;2.70;;;8.60;99.90;;;;;;5115223;27;20043;-67
2022/12/22 16:42:31;;;;;;;6.60;3.58;;;8.50;99.90;;;;;;5085622;27;20122;-67
2022/12/22 16:44:57;;;;;;;7.00;2.97;;;8.50;99.90;;;;;;5121813;27;20261;-67
2022/12/22 16:47:30;;;;;;;5.50;2.83;;;8.50;99.90;;;;;;5102317;27;20241;-67
2022/12/22 16:49:55;;;;;;;8.77;4.32;;;8.50;99.90;;;;;;5136444;27;20039;-67
2022/12/22 16:52:27;;;;;;;8.00;3.97;;;8.50;99.90;;;;;;5122518;27;20043;-67